sensor_id;sensor_type;location;lat;lon;timestamp;P1;durP1;ratioP1;P2;durP2;ratioP2
18249;SDS011;27980;52.126;5.572;2023-04-01T00:00:24;7.75;;;4.47;;
18249;SDS011;27980;52.126;5.572;2023-04-01T00:02:52;8.27;;;4.55;;
18249;SDS011;27980;52.126;5.572;2023-04-01T00:05:18;9.20;;;5.15;;
18249;SDS011;27980;52.126;5.572;2023-04-01T00:07:45;8.70;;;4.80;;
18249;SDS011;27980;52.126;5.572;2023-04-01T00:10:12;10.52;;;5.05;;
18249;SDS011;27980;52.126;5.572;2023-04-01T00:12:39;7.65;;;4.22;;
18249;SDS011;27980;52.126;5.572;2023-04-01T00:15:06;9.77;;;4.78;;
18249;SDS011;27980;52.126;5.572;2023-04-01T00:17:33;14.32;;;5.13;;
18249;SDS011;27980;52.126;5.572;2023-04-01T00:20:02;14.25;;;5.43;;
18249;SDS011;27980;52.126;5.572;2023-04-01T00:22:29;16.63;;;5.50;;
18249;SDS011;27980;52.126;5.572;2023-04-01T00:24:56;9.10;;;4.85;;
18249;SDS011;27980;52.126;5.572;2023-04-01T00:27:22;13.25;;;5.97;;
18249;SDS011;27980;52.126;5.572;2023-04-01T00:29:49;11.45;;;6.00;;
18249;SDS011;27980;52.126;5.572;2023-04-01T00:32:15;11.13;;;5.28;;
18249;SDS011;27980;52.126;5.572;2023-04-01T00:34:42;13.10;;;5.38;;
18249;SDS011;27980;52.126;5.572;2023-04-01T00:37:10;11.20;;;5.45;;
18249;SDS011;27980;52.126;5.572;2023-04-01T00:39:37;10.80;;;5.93;;
18249;SDS011;27980;52.126;5.572;2023-04-01T00:42:03;18.20;;;5.78;;
18249;SDS011;27980;52.126;5.572;2023-04-01T00:44:31;14.38;;;6.43;;
18249;SDS011;27980;52.126;5.572;2023-04-01T00:46:58;16.17;;;6.70;;
18249;SDS011;27980;52.126;5.572;2023-04-01T00:49:26;13.77;;;6.90;;
18249;SDS011;27980;52.126;5.572;2023-04-01T00:51:53;10.75;;;5.68;;
18249;SDS011;27980;52.126;5.572;2023-04-01T00:54:22;22.67;;;7.43;;
18249;SDS011;27980;52.126;5.572;2023-04-01T00:56:50;14.40;;;6.78;;
18249;SDS011;27980;52.126;5.572;2023-04-01T00:59:21;22.10;;;8.13;;
18249;SDS011;27980;52.126;5.572;2023-04-01T01:01:49;18.58;;;8.13;;
18249;SDS011;27980;52.126;5.572;2023-04-01T01:04:20;19.30;;;8.10;;
18249;SDS011;27980;52.126;5.572;2023-04-01T01:06:49;21.77;;;8.68;;
18249;SDS011;27980;52.126;5.572;2023-04-01T01:09:23;16.65;;;9.02;;
18249;SDS011;27980;52.126;5.572;2023-04-01T01:11:54;24.08;;;8.88;;
18249;SDS011;27980;52.126;5.572;2023-04-01T01:14:25;18.23;;;7.53;;
18249;SDS011;27980;52.126;5.572;2023-04-01T01:16:57;19.23;;;8.35;;
18249;SDS011;27980;52.126;5.572;2023-04-01T01:22:18;19.00;;;7.97;;
18249;SDS011;27980;52.126;5.572;2023-04-01T01:24:53;23.02;;;8.85;;
18249;SDS011;27980;52.126;5.572;2023-04-01T01:27:20;21.50;;;9.48;;
18249;SDS011;27980;52.126;5.572;2023-04-01T01:29:53;24.48;;;8.70;;
18249;SDS011;27980;52.126;5.572;2023-04-01T01:32:27;20.40;;;9.55;;
18249;SDS011;27980;52.126;5.572;2023-04-01T01:35:11;18.77;;;7.32;;
18249;SDS011;27980;52.126;5.572;2023-04-01T01:37:40;22.70;;;8.18;;
18249;SDS011;27980;52.126;5.572;2023-04-01T01:40:08;23.17;;;8.50;;
18249;SDS011;27980;52.126;5.572;2023-04-01T01:42:36;17.08;;;8.73;;
18249;SDS011;27980;52.126;5.572;2023-04-01T01:45:03;18.45;;;8.30;;
18249;SDS011;27980;52.126;5.572;2023-04-01T01:47:30;15.25;;;7.32;;
18249;SDS011;27980;52.126;5.572;2023-04-01T01:49:57;18.65;;;8.35;;
18249;SDS011;27980;52.126;5.572;2023-04-01T01:52:26;18.05;;;7.95;;
18249;SDS011;27980;52.126;5.572;2023-04-01T01:54:53;22.88;;;8.23;;
18249;SDS011;27980;52.126;5.572;2023-04-01T01:57:21;13.57;;;7.20;;
18249;SDS011;27980;52.126;5.572;2023-04-01T01:59:49;18.02;;;6.82;;
18249;SDS011;27980;52.126;5.572;2023-04-01T02:02:16;17.77;;;6.10;;
18249;SDS011;27980;52.126;5.572;2023-04-01T02:04:43;17.20;;;7.75;;
18249;SDS011;27980;52.126;5.572;2023-04-01T02:07:12;12.50;;;5.88;;
18249;SDS011;27980;52.126;5.572;2023-04-01T02:09:42;14.43;;;5.80;;
18249;SDS011;27980;52.126;5.572;2023-04-01T02:12:09;13.35;;;6.40;;
18249;SDS011;27980;52.126;5.572;2023-04-01T02:14:39;17.17;;;7.05;;
18249;SDS011;27980;52.126;5.572;2023-04-01T02:17:08;14.90;;;6.55;;
18249;SDS011;27980;52.126;5.572;2023-04-01T02:19:36;11.77;;;6.57;;
18249;SDS011;27980;52.126;5.572;2023-04-01T02:22:04;18.38;;;7.53;;
18249;SDS011;27980;52.126;5.572;2023-04-01T02:24:32;16.58;;;6.63;;
18249;SDS011;27980;52.126;5.572;2023-04-01T02:27:01;16.48;;;6.13;;
18249;SDS011;27980;52.126;5.572;2023-04-01T02:29:28;13.63;;;6.25;;
18249;SDS011;27980;52.126;5.572;2023-04-01T02:31:55;13.20;;;6.78;;
18249;SDS011;27980;52.126;5.572;2023-04-01T02:34:22;20.70;;;7.63;;
18249;SDS011;27980;52.126;5.572;2023-04-01T02:36:49;16.08;;;6.65;;
18249;SDS011;27980;52.126;5.572;2023-04-01T02:39:16;11.43;;;5.78;;
18249;SDS011;27980;52.126;5.572;2023-04-01T02:41:43;14.85;;;7.13;;
18249;SDS011;27980;52.126;5.572;2023-04-01T02:44:13;16.40;;;7.05;;
18249;SDS011;27980;52.126;5.572;2023-04-01T02:46:40;18.45;;;6.72;;
18249;SDS011;27980;52.126;5.572;2023-04-01T02:49:07;13.10;;;5.65;;
18249;SDS011;27980;52.126;5.572;2023-04-01T02:51:34;10.35;;;5.72;;
18249;SDS011;27980;52.126;5.572;2023-04-01T02:54:00;11.40;;;5.40;;
18249;SDS011;27980;52.126;5.572;2023-04-01T02:56:27;13.27;;;4.82;;
18249;SDS011;27980;52.126;5.572;2023-04-01T02:58:53;9.70;;;4.95;;
18249;SDS011;27980;52.126;5.572;2023-04-01T03:01:22;11.82;;;4.25;;
18249;SDS011;27980;52.126;5.572;2023-04-01T03:03:49;10.73;;;5.03;;
18249;SDS011;27980;52.126;5.572;2023-04-01T03:06:16;10.95;;;5.65;;
18249;SDS011;27980;52.126;5.572;2023-04-01T03:08:43;8.23;;;4.95;;
18249;SDS011;27980;52.126;5.572;2023-04-01T03:11:09;9.85;;;4.70;;
18249;SDS011;27980;52.126;5.572;2023-04-01T03:13:35;9.85;;;5.45;;
18249;SDS011;27980;52.126;5.572;2023-04-01T03:16:02;11.82;;;5.05;;
18249;SDS011;27980;52.126;5.572;2023-04-01T03:18:30;10.45;;;5.85;;
18249;SDS011;27980;52.126;5.572;2023-04-01T03:20:56;10.13;;;4.72;;
18249;SDS011;27980;52.126;5.572;2023-04-01T03:23:23;7.43;;;4.55;;
18249;SDS011;27980;52.126;5.572;2023-04-01T03:25:49;9.20;;;4.97;;
18249;SDS011;27980;52.126;5.572;2023-04-01T03:28:16;7.45;;;4.25;;
18249;SDS011;27980;52.126;5.572;2023-04-01T03:30:42;6.57;;;4.03;;
18249;SDS011;27980;52.126;5.572;2023-04-01T03:33:08;6.22;;;3.95;;
18249;SDS011;27980;52.126;5.572;2023-04-01T03:35:36;7.68;;;4.68;;
18249;SDS011;27980;52.126;5.572;2023-04-01T03:38:03;7.65;;;4.20;;
18249;SDS011;27980;52.126;5.572;2023-04-01T03:40:29;7.38;;;3.83;;
18249;SDS011;27980;52.126;5.572;2023-04-01T03:42:55;5.85;;;3.75;;
18249;SDS011;27980;52.126;5.572;2023-04-01T03:45:22;6.78;;;4.35;;
18249;SDS011;27980;52.126;5.572;2023-04-01T03:47:48;8.38;;;4.35;;
18249;SDS011;27980;52.126;5.572;2023-04-01T03:50:15;8.88;;;4.45;;
18249;SDS011;27980;52.126;5.572;2023-04-01T03:52:43;7.10;;;3.63;;
18249;SDS011;27980;52.126;5.572;2023-04-01T03:55:09;8.80;;;3.67;;
18249;SDS011;27980;52.126;5.572;2023-04-01T03:57:36;8.70;;;4.65;;
18249;SDS011;27980;52.126;5.572;2023-04-01T04:00:03;8.40;;;4.20;;
18249;SDS011;27980;52.126;5.572;2023-04-01T04:02:29;11.15;;;3.90;;
18249;SDS011;27980;52.126;5.572;2023-04-01T04:04:56;7.20;;;4.00;;
18249;SDS011;27980;52.126;5.572;2023-04-01T04:07:22;7.80;;;4.28;;
18249;SDS011;27980;52.126;5.572;2023-04-01T04:09:50;7.07;;;3.42;;
18249;SDS011;27980;52.126;5.572;2023-04-01T04:12:16;7.15;;;3.88;;
18249;SDS011;27980;52.126;5.572;2023-04-01T04:14:43;11.05;;;4.53;;
18249;SDS011;27980;52.126;5.572;2023-04-01T04:17:09;13.65;;;3.83;;
18249;SDS011;27980;52.126;5.572;2023-04-01T04:19:38;8.82;;;3.78;;
18249;SDS011;27980;52.126;5.572;2023-04-01T04:22:05;10.10;;;4.60;;
18249;SDS011;27980;52.126;5.572;2023-04-01T04:24:33;8.52;;;4.15;;
18249;SDS011;27980;52.126;5.572;2023-04-01T04:27:01;10.43;;;5.13;;
18249;SDS011;27980;52.126;5.572;2023-04-01T04:29:28;11.80;;;5.32;;
18249;SDS011;27980;52.126;5.572;2023-04-01T04:31:55;15.18;;;5.88;;
18249;SDS011;27980;52.126;5.572;2023-04-01T04:34:21;12.13;;;6.32;;
18249;SDS011;27980;52.126;5.572;2023-04-01T04:36:47;11.10;;;5.40;;
18249;SDS011;27980;52.126;5.572;2023-04-01T04:39:14;11.32;;;5.22;;
18249;SDS011;27980;52.126;5.572;2023-04-01T04:41:40;13.30;;;5.93;;
18249;SDS011;27980;52.126;5.572;2023-04-01T04:44:08;13.65;;;5.45;;
18249;SDS011;27980;52.126;5.572;2023-04-01T04:46:35;12.23;;;5.35;;
18249;SDS011;27980;52.126;5.572;2023-04-01T04:49:04;13.32;;;4.85;;
18249;SDS011;27980;52.126;5.572;2023-04-01T04:51:33;12.95;;;5.38;;
18249;SDS011;27980;52.126;5.572;2023-04-01T04:54:00;13.65;;;5.45;;
18249;SDS011;27980;52.126;5.572;2023-04-01T04:56:27;12.23;;;4.53;;
18249;SDS011;27980;52.126;5.572;2023-04-01T04:58:54;12.98;;;5.40;;
18249;SDS011;27980;52.126;5.572;2023-04-01T05:01:22;16.98;;;5.55;;
18249;SDS011;27980;52.126;5.572;2023-04-01T05:03:48;18.67;;;4.97;;
18249;SDS011;27980;52.126;5.572;2023-04-01T05:06:15;9.98;;;4.53;;
18249;SDS011;27980;52.126;5.572;2023-04-01T05:08:42;15.00;;;5.22;;
18249;SDS011;27980;52.126;5.572;2023-04-01T05:11:10;11.55;;;4.78;;
18249;SDS011;27980;52.126;5.572;2023-04-01T05:13:37;11.95;;;5.30;;
18249;SDS011;27980;52.126;5.572;2023-04-01T05:16:07;13.32;;;5.00;;
18249;SDS011;27980;52.126;5.572;2023-04-01T05:18:35;12.60;;;5.15;;
18249;SDS011;27980;52.126;5.572;2023-04-01T05:21:01;13.20;;;4.80;;
18249;SDS011;27980;52.126;5.572;2023-04-01T05:23:27;10.18;;;4.40;;
18249;SDS011;27980;52.126;5.572;2023-04-01T05:25:55;9.88;;;4.00;;
18249;SDS011;27980;52.126;5.572;2023-04-01T05:28:22;10.65;;;3.63;;
18249;SDS011;27980;52.126;5.572;2023-04-01T05:30:48;9.20;;;4.00;;
18249;SDS011;27980;52.126;5.572;2023-04-01T05:33:16;6.88;;;3.17;;
18249;SDS011;27980;52.126;5.572;2023-04-01T05:35:44;7.80;;;3.35;;
18249;SDS011;27980;52.126;5.572;2023-04-01T05:38:11;8.05;;;3.30;;
18249;SDS011;27980;52.126;5.572;2023-04-01T05:40:37;7.57;;;2.88;;
18249;SDS011;27980;52.126;5.572;2023-04-01T05:43:03;13.00;;;3.55;;
18249;SDS011;27980;52.126;5.572;2023-04-01T05:45:30;9.93;;;3.45;;
18249;SDS011;27980;52.126;5.572;2023-04-01T05:47:58;8.35;;;3.38;;
18249;SDS011;27980;52.126;5.572;2023-04-01T05:50:25;9.40;;;4.32;;
18249;SDS011;27980;52.126;5.572;2023-04-01T05:52:53;9.13;;;3.65;;
18249;SDS011;27980;52.126;5.572;2023-04-01T05:55:20;6.00;;;2.40;;
18249;SDS011;27980;52.126;5.572;2023-04-01T05:57:46;9.82;;;2.83;;
18249;SDS011;27980;52.126;5.572;2023-04-01T06:00:14;6.47;;;3.00;;
18249;SDS011;27980;52.126;5.572;2023-04-01T06:02:41;7.28;;;2.40;;
18249;SDS011;27980;52.126;5.572;2023-04-01T06:05:12;6.22;;;2.63;;
18249;SDS011;27980;52.126;5.572;2023-04-01T06:07:39;4.28;;;1.88;;
18249;SDS011;27980;52.126;5.572;2023-04-01T06:10:10;5.15;;;2.47;;
18249;SDS011;27980;52.126;5.572;2023-04-01T06:12:40;4.68;;;1.88;;
18249;SDS011;27980;52.126;5.572;2023-04-01T06:15:11;5.68;;;2.28;;
18249;SDS011;27980;52.126;5.572;2023-04-01T06:17:43;5.22;;;1.92;;
18249;SDS011;27980;52.126;5.572;2023-04-01T06:20:16;2.45;;;1.52;;
18249;SDS011;27980;52.126;5.572;2023-04-01T06:22:49;4.47;;;2.40;;
18249;SDS011;27980;52.126;5.572;2023-04-01T06:28:20;3.42;;;1.90;;
18249;SDS011;27980;52.126;5.572;2023-04-01T06:30:55;3.40;;;1.52;;
18249;SDS011;27980;52.126;5.572;2023-04-01T06:33:30;4.50;;;2.20;;
18249;SDS011;27980;52.126;5.572;2023-04-01T06:36:03;5.10;;;2.00;;
18249;SDS011;27980;52.126;5.572;2023-04-01T06:38:42;4.43;;;2.45;;
18249;SDS011;27980;52.126;5.572;2023-04-01T06:41:18;4.60;;;2.08;;
18249;SDS011;27980;52.126;5.572;2023-04-01T06:43:52;5.15;;;2.08;;
18249;SDS011;27980;52.126;5.572;2023-04-01T06:46:23;3.67;;;1.80;;
18249;SDS011;27980;52.126;5.572;2023-04-01T06:48:58;3.20;;;1.83;;
18249;SDS011;27980;52.126;5.572;2023-04-01T06:51:31;4.50;;;1.77;;
18249;SDS011;27980;52.126;5.572;2023-04-01T06:54:03;3.50;;;2.20;;
18249;SDS011;27980;52.126;5.572;2023-04-01T06:56:32;4.25;;;1.70;;
18249;SDS011;27980;52.126;5.572;2023-04-01T06:59:01;4.05;;;2.08;;
18249;SDS011;27980;52.126;5.572;2023-04-01T07:01:29;3.42;;;1.75;;
18249;SDS011;27980;52.126;5.572;2023-04-01T07:03:58;3.55;;;1.55;;
18249;SDS011;27980;52.126;5.572;2023-04-01T07:06:27;4.30;;;1.70;;
18249;SDS011;27980;52.126;5.572;2023-04-01T07:08:55;1.95;;;1.27;;
18249;SDS011;27980;52.126;5.572;2023-04-01T07:11:26;3.35;;;1.67;;
18249;SDS011;27980;52.126;5.572;2023-04-01T07:14:12;3.00;;;1.52;;
18249;SDS011;27980;52.126;5.572;2023-04-01T07:16:41;2.03;;;1.08;;
18249;SDS011;27980;52.126;5.572;2023-04-01T07:19:12;2.28;;;1.45;;
18249;SDS011;27980;52.126;5.572;2023-04-01T07:21:43;1.15;;;0.90;;
18249;SDS011;27980;52.126;5.572;2023-04-01T07:24:13;0.60;;;0.60;;
18249;SDS011;27980;52.126;5.572;2023-04-01T07:26:42;2.67;;;0.75;;
18249;SDS011;27980;52.126;5.572;2023-04-01T07:29:09;3.45;;;1.05;;
18249;SDS011;27980;52.126;5.572;2023-04-01T07:31:43;2.17;;;0.80;;
18249;SDS011;27980;52.126;5.572;2023-04-01T07:34:12;1.85;;;1.38;;
18249;SDS011;27980;52.126;5.572;2023-04-01T07:36:42;3.75;;;1.60;;
18249;SDS011;27980;52.126;5.572;2023-04-01T07:39:15;2.88;;;1.25;;
18249;SDS011;27980;52.126;5.572;2023-04-01T07:41:45;2.25;;;1.30;;
18249;SDS011;27980;52.126;5.572;2023-04-01T07:44:16;2.65;;;1.45;;
18249;SDS011;27980;52.126;5.572;2023-04-01T07:46:52;2.85;;;1.50;;
18249;SDS011;27980;52.126;5.572;2023-04-01T07:49:21;2.58;;;1.35;;
18249;SDS011;27980;52.126;5.572;2023-04-01T07:51:49;3.28;;;1.65;;
18249;SDS011;27980;52.126;5.572;2023-04-01T07:54:22;4.07;;;1.60;;
18249;SDS011;27980;52.126;5.572;2023-04-01T07:56:49;2.78;;;1.70;;
18249;SDS011;27980;52.126;5.572;2023-04-01T07:59:18;2.13;;;1.40;;
18249;SDS011;27980;52.126;5.572;2023-04-01T08:01:49;3.95;;;1.70;;
18249;SDS011;27980;52.126;5.572;2023-04-01T08:04:20;2.45;;;1.63;;
18249;SDS011;27980;52.126;5.572;2023-04-01T08:06:51;3.50;;;1.75;;
18249;SDS011;27980;52.126;5.572;2023-04-01T08:09:21;3.25;;;1.63;;
18249;SDS011;27980;52.126;5.572;2023-04-01T08:11:53;4.15;;;1.52;;
18249;SDS011;27980;52.126;5.572;2023-04-01T08:14:25;2.25;;;1.45;;
18249;SDS011;27980;52.126;5.572;2023-04-01T08:16:57;3.00;;;1.60;;
18249;SDS011;27980;52.126;5.572;2023-04-01T08:19:30;1.88;;;1.17;;
18249;SDS011;27980;52.126;5.572;2023-04-01T08:21:58;2.60;;;1.42;;
18249;SDS011;27980;52.126;5.572;2023-04-01T08:24:32;4.22;;;1.90;;
18249;SDS011;27980;52.126;5.572;2023-04-01T08:27:01;2.97;;;1.70;;
18249;SDS011;27980;52.126;5.572;2023-04-01T08:29:31;8.02;;;1.80;;
18249;SDS011;27980;52.126;5.572;2023-04-01T08:32:03;8.60;;;2.05;;
18249;SDS011;27980;52.126;5.572;2023-04-01T08:34:34;4.03;;;1.92;;
18249;SDS011;27980;52.126;5.572;2023-04-01T08:37:02;5.93;;;2.13;;
18249;SDS011;27980;52.126;5.572;2023-04-01T08:39:31;6.85;;;2.63;;
18249;SDS011;27980;52.126;5.572;2023-04-01T08:42:11;5.00;;;2.65;;
18249;SDS011;27980;52.126;5.572;2023-04-01T08:44:52;6.75;;;2.80;;
18249;SDS011;27980;52.126;5.572;2023-04-01T08:47:32;5.82;;;2.90;;
18249;SDS011;27980;52.126;5.572;2023-04-01T08:50:16;6.30;;;3.38;;
18249;SDS011;27980;52.126;5.572;2023-04-01T08:52:46;7.80;;;3.38;;
18249;SDS011;27980;52.126;5.572;2023-04-01T08:55:19;6.03;;;2.92;;
18249;SDS011;27980;52.126;5.572;2023-04-01T08:57:50;5.85;;;3.10;;
18249;SDS011;27980;52.126;5.572;2023-04-01T09:00:22;9.60;;;3.78;;
18249;SDS011;27980;52.126;5.572;2023-04-01T09:02:58;6.88;;;3.10;;
18249;SDS011;27980;52.126;5.572;2023-04-01T09:05:37;7.15;;;2.92;;
18249;SDS011;27980;52.126;5.572;2023-04-01T09:08:17;9.18;;;3.35;;
18249;SDS011;27980;52.126;5.572;2023-04-01T09:10:49;8.80;;;3.20;;
18249;SDS011;27980;52.126;5.572;2023-04-01T09:13:29;7.22;;;3.50;;
18249;SDS011;27980;52.126;5.572;2023-04-01T09:16:16;9.43;;;4.03;;
18249;SDS011;27980;52.126;5.572;2023-04-01T09:18:59;7.85;;;3.80;;
18249;SDS011;27980;52.126;5.572;2023-04-01T09:24:25;9.57;;;3.92;;
18249;SDS011;27980;52.126;5.572;2023-04-01T09:27:01;8.02;;;3.63;;
18249;SDS011;27980;52.126;5.572;2023-04-01T09:29:34;9.95;;;4.10;;
18249;SDS011;27980;52.126;5.572;2023-04-01T09:32:10;6.80;;;3.60;;
18249;SDS011;27980;52.126;5.572;2023-04-01T09:34:45;7.47;;;3.85;;
18249;SDS011;27980;52.126;5.572;2023-04-01T09:37:19;9.88;;;4.43;;
18249;SDS011;27980;52.126;5.572;2023-04-01T09:39:52;9.60;;;3.95;;
18249;SDS011;27980;52.126;5.572;2023-04-01T09:42:27;9.18;;;3.92;;
18249;SDS011;27980;52.126;5.572;2023-04-01T09:44:57;8.05;;;3.90;;
18249;SDS011;27980;52.126;5.572;2023-04-01T09:52:57;7.10;;;3.85;;
18249;SDS011;27980;52.126;5.572;2023-04-01T09:55:39;7.40;;;3.75;;
18249;SDS011;27980;52.126;5.572;2023-04-01T09:58:33;8.38;;;4.32;;
18249;SDS011;27980;52.126;5.572;2023-04-01T10:20:41;4.82;;;3.20;;
18249;SDS011;27980;52.126;5.572;2023-04-01T10:23:16;3.97;;;2.60;;
18249;SDS011;27980;52.126;5.572;2023-04-01T10:25:57;3.88;;;2.35;;
18249;SDS011;27980;52.126;5.572;2023-04-01T10:31:14;3.75;;;2.20;;
18249;SDS011;27980;52.126;5.572;2023-04-01T10:33:50;3.42;;;2.05;;
18249;SDS011;27980;52.126;5.572;2023-04-01T10:39:29;3.08;;;2.30;;
18249;SDS011;27980;52.126;5.572;2023-04-01T10:42:19;2.75;;;1.92;;
18249;SDS011;27980;52.126;5.572;2023-04-01T10:50:24;5.20;;;2.20;;
18249;SDS011;27980;52.126;5.572;2023-04-01T10:53:08;3.60;;;2.45;;
18249;SDS011;27980;52.126;5.572;2023-04-01T10:55:46;3.70;;;2.30;;
18249;SDS011;27980;52.126;5.572;2023-04-01T10:58:22;3.22;;;2.33;;
18249;SDS011;27980;52.126;5.572;2023-04-01T11:06:37;3.65;;;2.20;;
18249;SDS011;27980;52.126;5.572;2023-04-01T11:09:34;3.95;;;2.20;;
18249;SDS011;27980;52.126;5.572;2023-04-01T11:12:22;2.63;;;1.80;;
18249;SDS011;27980;52.126;5.572;2023-04-01T11:15:09;2.33;;;1.73;;
18249;SDS011;27980;52.126;5.572;2023-04-01T11:17:55;2.65;;;1.58;;
18249;SDS011;27980;52.126;5.572;2023-04-01T11:26:08;2.40;;;1.60;;
18249;SDS011;27980;52.126;5.572;2023-04-01T11:28:43;1.77;;;1.48;;
18249;SDS011;27980;52.126;5.572;2023-04-01T11:31:19;2.47;;;1.30;;
18249;SDS011;27980;52.126;5.572;2023-04-01T11:33:49;1.63;;;1.13;;
18249;SDS011;27980;52.126;5.572;2023-04-01T11:36:22;1.52;;;1.10;;
18249;SDS011;27980;52.126;5.572;2023-04-01T11:39:01;1.45;;;1.10;;
18249;SDS011;27980;52.126;5.572;2023-04-01T11:41:33;1.48;;;1.08;;
18249;SDS011;27980;52.126;5.572;2023-04-01T11:44:11;2.13;;;1.20;;
18249;SDS011;27980;52.126;5.572;2023-04-01T11:47:01;1.60;;;1.40;;
18249;SDS011;27980;52.126;5.572;2023-04-01T11:49:33;1.55;;;1.20;;
18249;SDS011;27980;52.126;5.572;2023-04-01T11:52:10;1.75;;;1.35;;
18249;SDS011;27980;52.126;5.572;2023-04-01T11:54:49;1.67;;;1.27;;
18249;SDS011;27980;52.126;5.572;2023-04-01T11:57:33;1.77;;;1.38;;
18249;SDS011;27980;52.126;5.572;2023-04-01T12:00:10;1.48;;;1.15;;
18249;SDS011;27980;52.126;5.572;2023-04-01T12:02:43;1.27;;;1.10;;
18249;SDS011;27980;52.126;5.572;2023-04-01T12:05:18;1.83;;;1.30;;
18249;SDS011;27980;52.126;5.572;2023-04-01T12:07:55;1.95;;;1.58;;
18249;SDS011;27980;52.126;5.572;2023-04-01T12:10:25;2.25;;;1.67;;
18249;SDS011;27980;52.126;5.572;2023-04-01T12:12:57;2.05;;;1.58;;
18249;SDS011;27980;52.126;5.572;2023-04-01T12:15:29;2.38;;;1.50;;
18249;SDS011;27980;52.126;5.572;2023-04-01T12:17:57;1.90;;;1.60;;
18249;SDS011;27980;52.126;5.572;2023-04-01T12:20:29;2.25;;;1.45;;
18249;SDS011;27980;52.126;5.572;2023-04-01T12:22:59;2.15;;;1.67;;
18249;SDS011;27980;52.126;5.572;2023-04-01T12:25:52;2.25;;;1.52;;
18249;SDS011;27980;52.126;5.572;2023-04-01T12:28:24;2.13;;;1.60;;
18249;SDS011;27980;52.126;5.572;2023-04-01T12:31:05;2.75;;;1.80;;
18249;SDS011;27980;52.126;5.572;2023-04-01T12:33:49;2.25;;;1.50;;
18249;SDS011;27980;52.126;5.572;2023-04-01T12:36:19;1.92;;;1.40;;
18249;SDS011;27980;52.126;5.572;2023-04-01T12:39:00;2.28;;;1.70;;
18249;SDS011;27980;52.126;5.572;2023-04-01T12:41:35;2.40;;;1.80;;
18249;SDS011;27980;52.126;5.572;2023-04-01T12:44:23;3.42;;;2.15;;
18249;SDS011;27980;52.126;5.572;2023-04-01T12:46:58;2.10;;;1.80;;
18249;SDS011;27980;52.126;5.572;2023-04-01T12:49:34;3.33;;;2.03;;
18249;SDS011;27980;52.126;5.572;2023-04-01T12:52:09;3.72;;;2.08;;
18249;SDS011;27980;52.126;5.572;2023-04-01T13:00:20;5.28;;;2.60;;
18249;SDS011;27980;52.126;5.572;2023-04-01T13:02:57;4.40;;;2.60;;
18249;SDS011;27980;52.126;5.572;2023-04-01T13:05:33;4.25;;;2.83;;
18249;SDS011;27980;52.126;5.572;2023-04-01T13:08:11;5.43;;;2.88;;
18249;SDS011;27980;52.126;5.572;2023-04-01T13:10:44;5.75;;;3.67;;
18249;SDS011;27980;52.126;5.572;2023-04-01T13:16:01;4.47;;;3.17;;
18249;SDS011;27980;52.126;5.572;2023-04-01T13:18:34;4.45;;;2.80;;
18249;SDS011;27980;52.126;5.572;2023-04-01T13:21:05;5.63;;;2.47;;
18249;SDS011;27980;52.126;5.572;2023-04-01T13:23:39;3.72;;;2.20;;
18249;SDS011;27980;52.126;5.572;2023-04-01T13:26:13;3.53;;;2.20;;
18249;SDS011;27980;52.126;5.572;2023-04-01T13:28:43;3.78;;;2.30;;
18249;SDS011;27980;52.126;5.572;2023-04-01T13:31:14;3.45;;;2.15;;
18249;SDS011;27980;52.126;5.572;2023-04-01T13:33:54;3.60;;;2.40;;
18249;SDS011;27980;52.126;5.572;2023-04-01T13:36:26;3.53;;;2.30;;
18249;SDS011;27980;52.126;5.572;2023-04-01T13:39:01;2.95;;;2.05;;
18249;SDS011;27980;52.126;5.572;2023-04-01T13:41:33;5.18;;;2.47;;
18249;SDS011;27980;52.126;5.572;2023-04-01T13:44:06;3.25;;;2.33;;
18249;SDS011;27980;52.126;5.572;2023-04-01T13:46:46;4.20;;;2.70;;
18249;SDS011;27980;52.126;5.572;2023-04-01T13:52:07;3.03;;;2.22;;
18249;SDS011;27980;52.126;5.572;2023-04-01T13:54:39;4.75;;;2.80;;
18249;SDS011;27980;52.126;5.572;2023-04-01T13:57:14;4.75;;;2.65;;
18249;SDS011;27980;52.126;5.572;2023-04-01T14:02:41;4.03;;;1.98;;
18249;SDS011;27980;52.126;5.572;2023-04-01T14:08:04;4.45;;;2.30;;
18249;SDS011;27980;52.126;5.572;2023-04-01T14:10:35;4.15;;;2.25;;
18249;SDS011;27980;52.126;5.572;2023-04-01T14:13:03;3.60;;;1.85;;
18249;SDS011;27980;52.126;5.572;2023-04-01T14:15:42;4.60;;;2.30;;
18249;SDS011;27980;52.126;5.572;2023-04-01T14:18:21;3.20;;;1.95;;
18249;SDS011;27980;52.126;5.572;2023-04-01T14:20:51;2.22;;;1.52;;
18249;SDS011;27980;52.126;5.572;2023-04-01T14:23:28;2.60;;;1.83;;
18249;SDS011;27980;52.126;5.572;2023-04-01T14:28:53;2.60;;;1.85;;
18249;SDS011;27980;52.126;5.572;2023-04-01T14:31:25;3.97;;;2.85;;
18249;SDS011;27980;52.126;5.572;2023-04-01T14:33:57;5.07;;;2.25;;
18249;SDS011;27980;52.126;5.572;2023-04-01T14:36:30;3.17;;;2.10;;
18249;SDS011;27980;52.126;5.572;2023-04-01T14:39:08;3.00;;;2.33;;
18249;SDS011;27980;52.126;5.572;2023-04-01T14:41:42;4.75;;;2.70;;
18249;SDS011;27980;52.126;5.572;2023-04-01T14:44:18;3.95;;;2.22;;
18249;SDS011;27980;52.126;5.572;2023-04-01T14:46:54;3.85;;;2.22;;
18249;SDS011;27980;52.126;5.572;2023-04-01T14:49:30;3.03;;;2.22;;
18249;SDS011;27980;52.126;5.572;2023-04-01T14:52:03;5.22;;;2.70;;
18249;SDS011;27980;52.126;5.572;2023-04-01T14:54:32;3.50;;;2.72;;
18249;SDS011;27980;52.126;5.572;2023-04-01T14:57:05;2.85;;;2.38;;
18249;SDS011;27980;52.126;5.572;2023-04-01T14:59:31;3.47;;;2.47;;
18249;SDS011;27980;52.126;5.572;2023-04-01T15:01:59;5.57;;;2.10;;
18249;SDS011;27980;52.126;5.572;2023-04-01T15:07:20;3.08;;;2.42;;
18249;SDS011;27980;52.126;5.572;2023-04-01T15:09:50;3.13;;;2.42;;
18249;SDS011;27980;52.126;5.572;2023-04-01T15:12:23;4.05;;;2.30;;
18249;SDS011;27980;52.126;5.572;2023-04-01T15:15:01;3.67;;;2.65;;
18249;SDS011;27980;52.126;5.572;2023-04-01T15:17:40;3.40;;;2.47;;
18249;SDS011;27980;52.126;5.572;2023-04-01T15:20:19;3.35;;;2.22;;
18249;SDS011;27980;52.126;5.572;2023-04-01T15:22:52;3.92;;;2.50;;
18249;SDS011;27980;52.126;5.572;2023-04-01T15:25:30;3.03;;;2.20;;
18249;SDS011;27980;52.126;5.572;2023-04-01T15:27:59;3.90;;;2.35;;
18249;SDS011;27980;52.126;5.572;2023-04-01T15:30:33;3.50;;;1.80;;
18249;SDS011;27980;52.126;5.572;2023-04-01T15:33:08;3.33;;;2.20;;
18249;SDS011;27980;52.126;5.572;2023-04-01T15:35:39;3.25;;;2.47;;
18249;SDS011;27980;52.126;5.572;2023-04-01T15:38:11;2.83;;;1.95;;
18249;SDS011;27980;52.126;5.572;2023-04-01T15:40:44;2.45;;;1.73;;
18249;SDS011;27980;52.126;5.572;2023-04-01T15:43:15;3.45;;;2.33;;
18249;SDS011;27980;52.126;5.572;2023-04-01T15:45:49;2.22;;;2.00;;
18249;SDS011;27980;52.126;5.572;2023-04-01T15:48:20;2.38;;;1.50;;
18249;SDS011;27980;52.126;5.572;2023-04-01T15:53:37;2.40;;;1.80;;
18249;SDS011;27980;52.126;5.572;2023-04-01T15:56:13;2.13;;;1.77;;
18249;SDS011;27980;52.126;5.572;2023-04-01T15:58:47;1.80;;;1.60;;
18249;SDS011;27980;52.126;5.572;2023-04-01T16:01:23;2.28;;;1.67;;
18249;SDS011;27980;52.126;5.572;2023-04-01T16:03:55;2.45;;;1.73;;
18249;SDS011;27980;52.126;5.572;2023-04-01T16:09:16;3.13;;;2.10;;
18249;SDS011;27980;52.126;5.572;2023-04-01T16:11:51;2.28;;;2.08;;
18249;SDS011;27980;52.126;5.572;2023-04-01T16:14:24;2.05;;;1.83;;
18249;SDS011;27980;52.126;5.572;2023-04-01T16:16:57;2.80;;;1.75;;
18249;SDS011;27980;52.126;5.572;2023-04-01T16:22:12;3.78;;;2.00;;
18249;SDS011;27980;52.126;5.572;2023-04-01T16:24:40;3.20;;;2.38;;
18249;SDS011;27980;52.126;5.572;2023-04-01T16:27:11;3.92;;;2.25;;
18249;SDS011;27980;52.126;5.572;2023-04-01T16:29:40;2.60;;;2.22;;
18249;SDS011;27980;52.126;5.572;2023-04-01T16:32:14;2.92;;;2.28;;
18249;SDS011;27980;52.126;5.572;2023-04-01T16:34:43;2.38;;;1.90;;